sensor_id;sensor_type;location;lat;lon;timestamp;temperature;humidity
75442;DHT22;64019;48.312;14.226;2023-08-07T00:01:52;13.50;99.90
75442;DHT22;64019;48.312;14.226;2023-08-07T00:04:17;13.50;99.90
75442;DHT22;64019;48.312;14.226;2023-08-07T00:06:43;13.60;99.90
75442;DHT22;64019;48.312;14.226;2023-08-07T00:09:09;13.60;99.90
75442;DHT22;64019;48.312;14.226;2023-08-07T00:11:34;13.60;99.90
75442;DHT22;64019;48.312;14.226;2023-08-07T00:14:00;13.60;99.90
75442;DHT22;64019;48.312;14.226;2023-08-07T00:16:26;13.60;99.90
75442;DHT22;64019;48.312;14.226;2023-08-07T00:18:52;13.60;99.90
75442;DHT22;64019;48.312;14.226;2023-08-07T00:21:22;13.70;99.90
75442;DHT22;64019;48.312;14.226;2023-08-07T00:23:48;13.70;99.90
75442;DHT22;64019;48.312;14.226;2023-08-07T00:26:15;13.70;99.90
75442;DHT22;64019;48.312;14.226;2023-08-07T00:28:41;13.70;99.90
75442;DHT22;64019;48.312;14.226;2023-08-07T00:31:06;13.70;99.90
75442;DHT22;64019;48.312;14.226;2023-08-07T00:33:32;13.70;99.90
75442;DHT22;64019;48.312;14.226;2023-08-07T00:35:57;13.70;99.90
75442;DHT22;64019;48.312;14.226;2023-08-07T00:38:23;13.70;99.90
75442;DHT22;64019;48.312;14.226;2023-08-07T00:40:49;13.70;99.90
75442;DHT22;64019;48.312;14.226;2023-08-07T00:43:14;13.70;99.90
75442;DHT22;64019;48.312;14.226;2023-08-07T00:45:45;13.70;99.90
75442;DHT22;64019;48.312;14.226;2023-08-07T00:48:12;13.70;99.90
75442;DHT22;64019;48.312;14.226;2023-08-07T00:50:39;13.80;99.90
75442;DHT22;64019;48.312;14.226;2023-08-07T00:53:05;13.80;99.90
75442;DHT22;64019;48.312;14.226;2023-08-07T00:55:32;13.70;99.90
75442;DHT22;64019;48.312;14.226;2023-08-07T00:57:58;13.80;99.90
75442;DHT22;64019;48.312;14.226;2023-08-07T01:00:26;13.80;99.90
75442;DHT22;64019;48.312;14.226;2023-08-07T01:02:54;13.70;99.90
75442;DHT22;64019;48.312;14.226;2023-08-07T01:05:21;13.80;99.90
75442;DHT22;64019;48.312;14.226;2023-08-07T01:07:48;13.80;99.90
75442;DHT22;64019;48.312;14.226;2023-08-07T01:10:14;13.80;99.90
75442;DHT22;64019;48.312;14.226;2023-08-07T01:12:48;13.80;99.90
75442;DHT22;64019;48.312;14.226;2023-08-07T01:15:24;13.80;99.90
75442;DHT22;64019;48.312;14.226;2023-08-07T01:17:52;13.80;99.90
75442;DHT22;64019;48.312;14.226;2023-08-07T01:20:19;13.80;99.90
75442;DHT22;64019;48.312;14.226;2023-08-07T01:22:45;13.80;99.90
75442;DHT22;64019;48.312;14.226;2023-08-07T01:25:10;13.80;99.90
75442;DHT22;64019;48.312;14.226;2023-08-07T01:27:55;13.80;99.90
75442;DHT22;64019;48.312;14.226;2023-08-07T01:35:32;13.70;99.90
75442;DHT22;64019;48.312;14.226;2023-08-07T01:37:59;13.60;99.90
75442;DHT22;64019;48.312;14.226;2023-08-07T01:40:25;13.60;99.90
75442;DHT22;64019;48.312;14.226;2023-08-07T01:42:52;13.60;99.90
75442;DHT22;64019;48.312;14.226;2023-08-07T01:45:25;13.60;99.90
75442;DHT22;64019;48.312;14.226;2023-08-07T01:47:51;13.50;99.90
75442;DHT22;64019;48.312;14.226;2023-08-07T01:50:18;13.50;99.90
75442;DHT22;64019;48.312;14.226;2023-08-07T01:52:45;13.50;99.90
75442;DHT22;64019;48.312;14.226;2023-08-07T01:55:11;13.50;99.90
75442;DHT22;64019;48.312;14.226;2023-08-07T01:57:36;13.40;99.90
75442;DHT22;64019;48.312;14.226;2023-08-07T02:00:02;13.40;99.90
75442;DHT22;64019;48.312;14.226;2023-08-07T02:02:29;13.40;99.90
75442;DHT22;64019;48.312;14.226;2023-08-07T02:04:54;13.40;99.90
75442;DHT22;64019;48.312;14.226;2023-08-07T02:07:20;13.30;99.90
75442;DHT22;64019;48.312;14.226;2023-08-07T02:09:46;13.30;99.90
75442;DHT22;64019;48.312;14.226;2023-08-07T02:12:11;13.30;99.90
75442;DHT22;64019;48.312;14.226;2023-08-07T02:14:37;13.20;99.90
75442;DHT22;64019;48.312;14.226;2023-08-07T02:17:03;13.10;99.90
75442;DHT22;64019;48.312;14.226;2023-08-07T02:19:28;13.10;99.90
75442;DHT22;64019;48.312;14.226;2023-08-07T02:21:54;13.00;99.90
75442;DHT22;64019;48.312;14.226;2023-08-07T02:24:20;13.00;99.90
75442;DHT22;64019;48.312;14.226;2023-08-07T02:26:45;13.00;99.90
75442;DHT22;64019;48.312;14.226;2023-08-07T02:29:11;13.00;99.90
75442;DHT22;64019;48.312;14.226;2023-08-07T02:31:37;13.00;99.90
75442;DHT22;64019;48.312;14.226;2023-08-07T02:34:02;13.00;99.90
75442;DHT22;64019;48.312;14.226;2023-08-07T02:36:28;12.90;99.90
75442;DHT22;64019;48.312;14.226;2023-08-07T02:38:53;12.90;99.90
75442;DHT22;64019;48.312;14.226;2023-08-07T02:41:19;12.90;99.90
75442;DHT22;64019;48.312;14.226;2023-08-07T02:43:45;12.80;99.90
75442;DHT22;64019;48.312;14.226;2023-08-07T02:46:10;12.80;99.90
75442;DHT22;64019;48.312;14.226;2023-08-07T02:48:36;12.80;99.90
75442;DHT22;64019;48.312;14.226;2023-08-07T02:51:02;12.70;99.90
75442;DHT22;64019;48.312;14.226;2023-08-07T02:53:27;12.70;99.90
75442;DHT22;64019;48.312;14.226;2023-08-07T02:55:53;12.60;99.90
75442;DHT22;64019;48.312;14.226;2023-08-07T02:58:18;12.60;99.90
75442;DHT22;64019;48.312;14.226;2023-08-07T03:00:44;12.60;99.90
75442;DHT22;64019;48.312;14.226;2023-08-07T03:03:10;12.50;99.90
75442;DHT22;64019;48.312;14.226;2023-08-07T03:05:35;12.50;99.90
75442;DHT22;64019;48.312;14.226;2023-08-07T03:08:01;12.50;99.90
75442;DHT22;64019;48.312;14.226;2023-08-07T03:10:27;12.40;99.90
75442;DHT22;64019;48.312;14.226;2023-08-07T03:12:52;12.40;99.90
75442;DHT22;64019;48.312;14.226;2023-08-07T03:15:18;12.40;99.90
75442;DHT22;64019;48.312;14.226;2023-08-07T03:17:43;12.30;99.90
75442;DHT22;64019;48.312;14.226;2023-08-07T03:20:09;12.30;99.90
75442;DHT22;64019;48.312;14.226;2023-08-07T03:22:36;12.30;99.90
75442;DHT22;64019;48.312;14.226;2023-08-07T03:25:01;12.20;99.90
75442;DHT22;64019;48.312;14.226;2023-08-07T03:27:28;12.20;99.90
75442;DHT22;64019;48.312;14.226;2023-08-07T03:29:53;12.10;99.90
75442;DHT22;64019;48.312;14.226;2023-08-07T03:32:19;12.10;99.90
75442;DHT22;64019;48.312;14.226;2023-08-07T03:34:45;12.10;99.90
75442;DHT22;64019;48.312;14.226;2023-08-07T03:37:10;12.00;99.90
75442;DHT22;64019;48.312;14.226;2023-08-07T03:39:36;12.10;99.90
75442;DHT22;64019;48.312;14.226;2023-08-07T03:42:02;12.00;99.90
75442;DHT22;64019;48.312;14.226;2023-08-07T03:44:27;12.00;99.90
75442;DHT22;64019;48.312;14.226;2023-08-07T03:46:53;12.00;99.90
75442;DHT22;64019;48.312;14.226;2023-08-07T03:49:21;12.00;99.90
75442;DHT22;64019;48.312;14.226;2023-08-07T03:51:48;12.00;99.90
75442;DHT22;64019;48.312;14.226;2023-08-07T03:54:14;11.90;99.90
75442;DHT22;64019;48.312;14.226;2023-08-07T04:03:24;11.90;99.90
75442;DHT22;64019;48.312;14.226;2023-08-07T04:05:53;11.90;99.90
75442;DHT22;64019;48.312;14.226;2023-08-07T04:08:20;11.90;99.90
75442;DHT22;64019;48.312;14.226;2023-08-07T04:11:03;11.80;99.90
75442;DHT22;64019;48.312;14.226;2023-08-07T04:13:30;11.80;99.90
75442;DHT22;64019;48.312;14.226;2023-08-07T04:15:56;11.80;99.90
75442;DHT22;64019;48.312;14.226;2023-08-07T04:18:22;11.80;99.90
75442;DHT22;64019;48.312;14.226;2023-08-07T04:20:53;11.80;99.90
75442;DHT22;64019;48.312;14.226;2023-08-07T04:23:19;11.80;99.90
75442;DHT22;64019;48.312;14.226;2023-08-07T04:25:49;11.80;99.90
75442;DHT22;64019;48.312;14.226;2023-08-07T04:28:14;11.80;99.90
75442;DHT22;64019;48.312;14.226;2023-08-07T04:30:41;11.80;99.90
75442;DHT22;64019;48.312;14.226;2023-08-07T04:33:07;11.80;99.90
75442;DHT22;64019;48.312;14.226;2023-08-07T04:35:33;11.80;99.90
75442;DHT22;64019;48.312;14.226;2023-08-07T04:37:59;11.80;99.90
75442;DHT22;64019;48.312;14.226;2023-08-07T04:40:25;11.80;99.90
75442;DHT22;64019;48.312;14.226;2023-08-07T04:42:51;11.80;99.90
75442;DHT22;64019;48.312;14.226;2023-08-07T04:45:17;11.80;99.90
75442;DHT22;64019;48.312;14.226;2023-08-07T04:47:42;11.90;99.90
75442;DHT22;64019;48.312;14.226;2023-08-07T04:50:08;11.80;99.90
75442;DHT22;64019;48.312;14.226;2023-08-07T04:52:35;11.80;99.90
75442;DHT22;64019;48.312;14.226;2023-08-07T04:55:01;11.90;99.90
75442;DHT22;64019;48.312;14.226;2023-08-07T04:57:27;11.80;99.90
75442;DHT22;64019;48.312;14.226;2023-08-07T04:59:53;11.80;99.90
75442;DHT22;64019;48.312;14.226;2023-08-07T05:02:19;11.80;99.90
75442;DHT22;64019;48.312;14.226;2023-08-07T05:04:45;11.90;99.90
75442;DHT22;64019;48.312;14.226;2023-08-07T05:07:11;11.90;99.90
75442;DHT22;64019;48.312;14.226;2023-08-07T05:09:36;11.80;99.90
75442;DHT22;64019;48.312;14.226;2023-08-07T05:12:02;11.80;99.90
75442;DHT22;64019;48.312;14.226;2023-08-07T05:14:29;11.80;99.90
75442;DHT22;64019;48.312;14.226;2023-08-07T05:16:55;11.80;99.90
75442;DHT22;64019;48.312;14.226;2023-08-07T05:19:21;11.80;99.90
75442;DHT22;64019;48.312;14.226;2023-08-07T05:21:47;11.80;99.90
75442;DHT22;64019;48.312;14.226;2023-08-07T05:24:16;11.70;99.90
75442;DHT22;64019;48.312;14.226;2023-08-07T05:26:42;11.70;99.90
75442;DHT22;64019;48.312;14.226;2023-08-07T05:29:08;11.70;99.90
75442;DHT22;64019;48.312;14.226;2023-08-07T05:31:34;11.60;99.90
75442;DHT22;64019;48.312;14.226;2023-08-07T05:33:59;11.60;99.90
75442;DHT22;64019;48.312;14.226;2023-08-07T05:36:25;11.60;99.90
75442;DHT22;64019;48.312;14.226;2023-08-07T05:38:51;11.60;99.90
75442;DHT22;64019;48.312;14.226;2023-08-07T05:41:17;11.60;99.90
75442;DHT22;64019;48.312;14.226;2023-08-07T05:43:42;11.60;99.90
75442;DHT22;64019;48.312;14.226;2023-08-07T05:46:08;11.60;99.90
75442;DHT22;64019;48.312;14.226;2023-08-07T05:48:34;11.60;99.90
75442;DHT22;64019;48.312;14.226;2023-08-07T05:50:59;11.60;99.90
75442;DHT22;64019;48.312;14.226;2023-08-07T05:53:25;11.60;99.90
75442;DHT22;64019;48.312;14.226;2023-08-07T05:55:51;11.60;99.90
75442;DHT22;64019;48.312;14.226;2023-08-07T05:58:16;11.70;99.90
75442;DHT22;64019;48.312;14.226;2023-08-07T06:00:42;11.70;99.90
75442;DHT22;64019;48.312;14.226;2023-08-07T06:03:08;11.70;99.90
75442;DHT22;64019;48.312;14.226;2023-08-07T06:05:34;11.70;99.90
75442;DHT22;64019;48.312;14.226;2023-08-07T06:08:00;11.70;99.90
75442;DHT22;64019;48.312;14.226;2023-08-07T06:10:26;11.70;99.90
75442;DHT22;64019;48.312;14.226;2023-08-07T06:12:52;11.70;99.90
75442;DHT22;64019;48.312;14.226;2023-08-07T06:15:18;11.70;99.90
75442;DHT22;64019;48.312;14.226;2023-08-07T06:17:44;11.70;99.90
75442;DHT22;64019;48.312;14.226;2023-08-07T06:20:10;11.70;99.90
75442;DHT22;64019;48.312;14.226;2023-08-07T06:22:37;11.70;99.90
75442;DHT22;64019;48.312;14.226;2023-08-07T06:25:03;11.60;99.90
75442;DHT22;64019;48.312;14.226;2023-08-07T06:27:31;11.60;99.90
75442;DHT22;64019;48.312;14.226;2023-08-07T06:29:57;11.60;99.90
75442;DHT22;64019;48.312;14.226;2023-08-07T06:32:24;11.60;99.90
75442;DHT22;64019;48.312;14.226;2023-08-07T06:34:50;11.60;99.90
75442;DHT22;64019;48.312;14.226;2023-08-07T06:37:15;11.60;99.90
75442;DHT22;64019;48.312;14.226;2023-08-07T06:39:41;11.60;99.90
75442;DHT22;64019;48.312;14.226;2023-08-07T06:42:07;11.60;99.90
75442;DHT22;64019;48.312;14.226;2023-08-07T06:44:33;11.60;99.90
75442;DHT22;64019;48.312;14.226;2023-08-07T06:46:58;11.70;99.90
75442;DHT22;64019;48.312;14.226;2023-08-07T06:49:24;11.70;99.90
75442;DHT22;64019;48.312;14.226;2023-08-07T06:51:49;11.70;99.90
75442;DHT22;64019;48.312;14.226;2023-08-07T06:54:15;11.80;99.90
75442;DHT22;64019;48.312;14.226;2023-08-07T06:56:41;11.80;99.90
75442;DHT22;64019;48.312;14.226;2023-08-07T06:59:07;11.80;99.90
75442;DHT22;64019;48.312;14.226;2023-08-07T07:01:33;11.80;99.90
75442;DHT22;64019;48.312;14.226;2023-08-07T07:03:59;11.80;99.90
75442;DHT22;64019;48.312;14.226;2023-08-07T07:06:24;11.70;99.90
75442;DHT22;64019;48.312;14.226;2023-08-07T07:08:51;11.70;99.90
75442;DHT22;64019;48.312;14.226;2023-08-07T07:11:20;11.70;99.90
75442;DHT22;64019;48.312;14.226;2023-08-07T07:13:46;11.70;99.90
75442;DHT22;64019;48.312;14.226;2023-08-07T07:16:12;11.70;99.90
75442;DHT22;64019;48.312;14.226;2023-08-07T07:18:39;11.60;99.90
75442;DHT22;64019;48.312;14.226;2023-08-07T07:21:04;11.60;99.90
75442;DHT22;64019;48.312;14.226;2023-08-07T07:23:30;11.60;99.90
75442;DHT22;64019;48.312;14.226;2023-08-07T07:25:56;11.60;99.90
75442;DHT22;64019;48.312;14.226;2023-08-07T07:28:23;11.60;99.90
75442;DHT22;64019;48.312;14.226;2023-08-07T07:30:51;11.60;99.90
75442;DHT22;64019;48.312;14.226;2023-08-07T07:33:17;11.50;99.90
75442;DHT22;64019;48.312;14.226;2023-08-07T07:35:43;11.60;99.90
75442;DHT22;64019;48.312;14.226;2023-08-07T07:38:09;11.50;99.90
75442;DHT22;64019;48.312;14.226;2023-08-07T07:40:35;11.50;99.90
75442;DHT22;64019;48.312;14.226;2023-08-07T07:43:01;11.50;99.90
75442;DHT22;64019;48.312;14.226;2023-08-07T07:45:27;11.50;99.90
75442;DHT22;64019;48.312;14.226;2023-08-07T07:47:53;11.50;99.90
75442;DHT22;64019;48.312;14.226;2023-08-07T07:50:18;11.50;99.90
75442;DHT22;64019;48.312;14.226;2023-08-07T07:52:44;11.50;99.90
75442;DHT22;64019;48.312;14.226;2023-08-07T07:55:10;11.50;99.90
75442;DHT22;64019;48.312;14.226;2023-08-07T07:57:36;11.50;99.90
75442;DHT22;64019;48.312;14.226;2023-08-07T08:00:02;11.60;99.90
75442;DHT22;64019;48.312;14.226;2023-08-07T08:02:29;11.50;99.90
75442;DHT22;64019;48.312;14.226;2023-08-07T08:04:55;11.60;99.90
75442;DHT22;64019;48.312;14.226;2023-08-07T08:07:21;11.50;99.90
75442;DHT22;64019;48.312;14.226;2023-08-07T08:09:47;11.60;99.90
75442;DHT22;64019;48.312;14.226;2023-08-07T08:12:12;11.60;99.90
75442;DHT22;64019;48.312;14.226;2023-08-07T08:14:38;11.60;99.90
75442;DHT22;64019;48.312;14.226;2023-08-07T08:17:04;11.50;99.90
75442;DHT22;64019;48.312;14.226;2023-08-07T08:19:29;11.60;99.90
75442;DHT22;64019;48.312;14.226;2023-08-07T08:21:55;11.60;99.90
75442;DHT22;64019;48.312;14.226;2023-08-07T08:24:21;11.60;99.90
75442;DHT22;64019;48.312;14.226;2023-08-07T08:26:47;11.50;99.90
75442;DHT22;64019;48.312;14.226;2023-08-07T08:29:14;11.50;99.90
75442;DHT22;64019;48.312;14.226;2023-08-07T08:31:41;11.60;99.90
75442;DHT22;64019;48.312;14.226;2023-08-07T08:34:06;11.50;99.90
75442;DHT22;64019;48.312;14.226;2023-08-07T08:36:32;11.60;99.90
75442;DHT22;64019;48.312;14.226;2023-08-07T08:38:57;11.50;99.90
75442;DHT22;64019;48.312;14.226;2023-08-07T08:41:24;11.60;99.90
75442;DHT22;64019;48.312;14.226;2023-08-07T08:43:52;11.50;99.90
75442;DHT22;64019;48.312;14.226;2023-08-07T08:46:20;11.50;99.90
75442;DHT22;64019;48.312;14.226;2023-08-07T08:48:50;11.60;99.90
75442;DHT22;64019;48.312;14.226;2023-08-07T08:51:16;11.50;99.90
75442;DHT22;64019;48.312;14.226;2023-08-07T08:53:45;11.50;99.90
75442;DHT22;64019;48.312;14.226;2023-08-07T08:56:11;11.60;99.90
75442;DHT22;64019;48.312;14.226;2023-08-07T08:58:38;11.60;99.90
75442;DHT22;64019;48.312;14.226;2023-08-07T09:01:05;11.50;99.90
75442;DHT22;64019;48.312;14.226;2023-08-07T09:03:31;11.50;99.90
75442;DHT22;64019;48.312;14.226;2023-08-07T09:05:58;11.50;99.90
75442;DHT22;64019;48.312;14.226;2023-08-07T09:08:26;11.50;99.90
75442;DHT22;64019;48.312;14.226;2023-08-07T09:10:54;11.60;99.90
75442;DHT22;64019;48.312;14.226;2023-08-07T09:13:23;11.50;99.90
75442;DHT22;64019;48.312;14.226;2023-08-07T09:15:51;11.50;99.90
75442;DHT22;64019;48.312;14.226;2023-08-07T09:18:17;11.60;99.90
75442;DHT22;64019;48.312;14.226;2023-08-07T09:20:43;11.60;99.90
75442;DHT22;64019;48.312;14.226;2023-08-07T09:23:09;11.60;99.90
75442;DHT22;64019;48.312;14.226;2023-08-07T09:25:35;11.60;99.90
75442;DHT22;64019;48.312;14.226;2023-08-07T09:28:05;11.60;99.90
75442;DHT22;64019;48.312;14.226;2023-08-07T09:30:34;11.60;99.90
75442;DHT22;64019;48.312;14.226;2023-08-07T09:33:00;11.60;99.90
75442;DHT22;64019;48.312;14.226;2023-08-07T09:35:27;11.60;99.90
75442;DHT22;64019;48.312;14.226;2023-08-07T09:37:52;11.60;99.90
75442;DHT22;64019;48.312;14.226;2023-08-07T09:40:19;11.60;99.90
75442;DHT22;64019;48.312;14.226;2023-08-07T09:42:44;11.60;99.90
75442;DHT22;64019;48.312;14.226;2023-08-07T09:45:22;11.60;99.90
75442;DHT22;64019;48.312;14.226;2023-08-07T09:48:02;11.70;99.90
75442;DHT22;64019;48.312;14.226;2023-08-07T09:50:28;11.70;99.90
75442;DHT22;64019;48.312;14.226;2023-08-07T09:52:54;11.70;99.90
75442;DHT22;64019;48.312;14.226;2023-08-07T09:55:24;11.80;99.90
75442;DHT22;64019;48.312;14.226;2023-08-07T09:57:50;11.70;99.90
75442;DHT22;64019;48.312;14.226;2023-08-07T10:00:16;11.80;99.90
75442;DHT22;64019;48.312;14.226;2023-08-07T10:02:48;11.80;99.90
75442;DHT22;64019;48.312;14.226;2023-08-07T10:05:14;11.80;99.90
75442;DHT22;64019;48.312;14.226;2023-08-07T10:07:41;11.80;99.90
75442;DHT22;64019;48.312;14.226;2023-08-07T10:10:07;11.90;99.90
75442;DHT22;64019;48.312;14.226;2023-08-07T10:12:33;11.90;99.90
75442;DHT22;64019;48.312;14.226;2023-08-07T10:15:00;11.90;99.90
75442;DHT22;64019;48.312;14.226;2023-08-07T10:17:26;11.90;99.90
75442;DHT22;64019;48.312;14.226;2023-08-07T10:19:52;11.90;99.90
75442;DHT22;64019;48.312;14.226;2023-08-07T10:22:19;12.00;99.90
75442;DHT22;64019;48.312;14.226;2023-08-07T10:24:47;12.00;99.90
75442;DHT22;64019;48.312;14.226;2023-08-07T10:27:18;12.00;99.90
75442;DHT22;64019;48.312;14.226;2023-08-07T10:29:46;12.00;99.90
75442;DHT22;64019;48.312;14.226;2023-08-07T10:32:14;12.10;99.90
75442;DHT22;64019;48.312;14.226;2023-08-07T10:34:46;12.10;99.90
75442;DHT22;64019;48.312;14.226;2023-08-07T10:37:32;12.20;99.90
75442;DHT22;64019;48.312;14.226;2023-08-07T10:40:06;12.20;99.90
75442;DHT22;64019;48.312;14.226;2023-08-07T10:45:28;12.20;99.90
75442;DHT22;64019;48.312;14.226;2023-08-07T10:48:07;12.30;99.90
75442;DHT22;64019;48.312;14.226;2023-08-07T10:50:35;12.30;99.90
75442;DHT22;64019;48.312;14.226;2023-08-07T10:53:19;12.40;99.90
75442;DHT22;64019;48.312;14.226;2023-08-07T10:55:47;12.40;99.90
75442;DHT22;64019;48.312;14.226;2023-08-07T10:58:29;12.40;99.90
75442;DHT22;64019;48.312;14.226;2023-08-07T11:01:15;12.40;99.90
75442;DHT22;64019;48.312;14.226;2023-08-07T11:03:42;12.40;99.90
75442;DHT22;64019;48.312;14.226;2023-08-07T11:06:11;12.50;99.90
75442;DHT22;64019;48.312;14.226;2023-08-07T11:08:37;12.50;99.90
75442;DHT22;64019;48.312;14.226;2023-08-07T11:11:07;12.60;99.90
75442;DHT22;64019;48.312;14.226;2023-08-07T11:13:33;12.60;99.90
75442;DHT22;64019;48.312;14.226;2023-08-07T11:16:01;12.70;99.90
75442;DHT22;64019;48.312;14.226;2023-08-07T11:18:27;12.70;99.90
75442;DHT22;64019;48.312;14.226;2023-08-07T11:20:57;12.70;99.90
75442;DHT22;64019;48.312;14.226;2023-08-07T11:23:24;12.80;99.90
75442;DHT22;64019;48.312;14.226;2023-08-07T11:25:51;12.90;99.90
75442;DHT22;64019;48.312;14.226;2023-08-07T11:28:18;12.90;99.90
75442;DHT22;64019;48.312;14.226;2023-08-07T11:30:49;12.90;99.90
75442;DHT22;64019;48.312;14.226;2023-08-07T11:33:15;13.00;99.90
75442;DHT22;64019;48.312;14.226;2023-08-07T11:35:42;13.00;99.90
75442;DHT22;64019;48.312;14.226;2023-08-07T11:38:07;12.90;99.90
75442;DHT22;64019;48.312;14.226;2023-08-07T11:40:34;12.90;99.90
75442;DHT22;64019;48.312;14.226;2023-08-07T11:43:00;13.00;99.90
75442;DHT22;64019;48.312;14.226;2023-08-07T11:45:25;13.00;99.90
75442;DHT22;64019;48.312;14.226;2023-08-07T11:47:51;13.00;99.90
75442;DHT22;64019;48.312;14.226;2023-08-07T11:50:17;13.10;99.90
75442;DHT22;64019;48.312;14.226;2023-08-07T11:52:43;13.10;99.90
75442;DHT22;64019;48.312;14.226;2023-08-07T11:55:09;13.20;99.90
75442;DHT22;64019;48.312;14.226;2023-08-07T11:57:38;13.20;99.90
75442;DHT22;64019;48.312;14.226;2023-08-07T12:00:07;13.20;99.90
75442;DHT22;64019;48.312;14.226;2023-08-07T12:02:41;13.30;99.90
75442;DHT22;64019;48.312;14.226;2023-08-07T12:05:08;13.30;99.90
75442;DHT22;64019;48.312;14.226;2023-08-07T12:07:36;13.30;99.90
75442;DHT22;64019;48.312;14.226;2023-08-07T12:10:04;13.30;99.90
75442;DHT22;64019;48.312;14.226;2023-08-07T12:12:36;13.30;99.90
75442;DHT22;64019;48.312;14.226;2023-08-07T12:15:03;13.40;99.90
75442;DHT22;64019;48.312;14.226;2023-08-07T12:17:31;13.40;99.90
75442;DHT22;64019;48.312;14.226;2023-08-07T12:19:58;13.30;99.90
75442;DHT22;64019;48.312;14.226;2023-08-07T12:22:27;13.30;99.90
75442;DHT22;64019;48.312;14.226;2023-08-07T12:24:53;13.30;99.90
75442;DHT22;64019;48.312;14.226;2023-08-07T12:27:19;13.40;99.90
75442;DHT22;64019;48.312;14.226;2023-08-07T12:29:45;13.40;99.90
75442;DHT22;64019;48.312;14.226;2023-08-07T12:32:11;13.40;99.90
75442;DHT22;64019;48.312;14.226;2023-08-07T12:34:37;13.40;99.90
75442;DHT22;64019;48.312;14.226;2023-08-07T12:37:06;13.30;99.90
75442;DHT22;64019;48.312;14.226;2023-08-07T12:39:32;13.40;99.90
75442;DHT22;64019;48.312;14.226;2023-08-07T12:41:57;13.50;99.90
75442;DHT22;64019;48.312;14.226;2023-08-07T12:44:23;13.60;99.90
75442;DHT22;64019;48.312;14.226;2023-08-07T12:46:49;13.70;99.90
75442;DHT22;64019;48.312;14.226;2023-08-07T12:49:15;13.90;99.90
75442;DHT22;64019;48.312;14.226;2023-08-07T12:51:40;13.90;99.90
75442;DHT22;64019;48.312;14.226;2023-08-07T12:54:06;14.00;99.90
75442;DHT22;64019;48.312;14.226;2023-08-07T12:56:32;14.10;99.90
75442;DHT22;64019;48.312;14.226;2023-08-07T12:58:57;14.10;99.90
75442;DHT22;64019;48.312;14.226;2023-08-07T13:01:23;14.20;99.90
75442;DHT22;64019;48.312;14.226;2023-08-07T13:03:49;14.10;99.90
75442;DHT22;64019;48.312;14.226;2023-08-07T13:06:14;14.10;99.90
75442;DHT22;64019;48.312;14.226;2023-08-07T13:08:40;14.20;99.90
75442;DHT22;64019;48.312;14.226;2023-08-07T13:11:06;14.10;99.90
75442;DHT22;64019;48.312;14.226;2023-08-07T13:13:31;14.10;99.90
75442;DHT22;64019;48.312;14.226;2023-08-07T13:15:57;14.10;99.90
75442;DHT22;64019;48.312;14.226;2023-08-07T13:18:24;14.10;99.90
75442;DHT22;64019;48.312;14.226;2023-08-07T13:20:50;14.20;99.90
75442;DHT22;64019;48.312;14.226;2023-08-07T13:23:15;14.20;99.90
75442;DHT22;64019;48.312;14.226;2023-08-07T13:25:41;14.30;99.90
75442;DHT22;64019;48.312;14.226;2023-08-07T13:28:07;14.30;99.90
75442;DHT22;64019;48.312;14.226;2023-08-07T13:30:33;14.50;99.90
75442;DHT22;64019;48.312;14.226;2023-08-07T13:32:59;14.50;99.90
75442;DHT22;64019;48.312;14.226;2023-08-07T13:35:24;14.60;99.90
75442;DHT22;64019;48.312;14.226;2023-08-07T13:37:50;14.60;99.90
75442;DHT22;64019;48.312;14.226;2023-08-07T13:40:16;14.70;99.90
75442;DHT22;64019;48.312;14.226;2023-08-07T13:42:41;14.70;99.90
75442;DHT22;64019;48.312;14.226;2023-08-07T13:45:07;14.70;99.90
75442;DHT22;64019;48.312;14.226;2023-08-07T13:47:35;14.70;99.90
75442;DHT22;64019;48.312;14.226;2023-08-07T13:50:01;14.80;99.90
75442;DHT22;64019;48.312;14.226;2023-08-07T13:52:27;14.80;99.90
75442;DHT22;64019;48.312;14.226;2023-08-07T13:54:53;14.90;99.90
75442;DHT22;64019;48.312;14.226;2023-08-07T13:57:19;15.00;99.90
75442;DHT22;64019;48.312;14.226;2023-08-07T13:59:44;15.00;99.90
75442;DHT22;64019;48.312;14.226;2023-08-07T14:02:10;15.00;99.90
75442;DHT22;64019;48.312;14.226;2023-08-07T14:07:51;15.10;99.90
75442;DHT22;64019;48.312;14.226;2023-08-07T14:10:18;15.30;99.90
75442;DHT22;64019;48.312;14.226;2023-08-07T14:12:44;15.30;99.90
75442;DHT22;64019;48.312;14.226;2023-08-07T14:15:10;15.50;99.90
75442;DHT22;64019;48.312;14.226;2023-08-07T14:17:37;15.60;99.90
75442;DHT22;64019;48.312;14.226;2023-08-07T14:20:03;15.70;99.90
75442;DHT22;64019;48.312;14.226;2023-08-07T14:22:30;15.80;99.90
75442;DHT22;64019;48.312;14.226;2023-08-07T14:24:57;15.90;99.90
75442;DHT22;64019;48.312;14.226;2023-08-07T14:27:22;15.90;99.90
75442;DHT22;64019;48.312;14.226;2023-08-07T14:29:48;16.00;99.90
75442;DHT22;64019;48.312;14.226;2023-08-07T14:32:13;15.90;99.90
75442;DHT22;64019;48.312;14.226;2023-08-07T14:34:39;15.80;99.90
75442;DHT22;64019;48.312;14.226;2023-08-07T14:37:05;15.70;99.90
75442;DHT22;64019;48.312;14.226;2023-08-07T14:39:30;15.70;99.90
75442;DHT22;64019;48.312;14.226;2023-08-07T14:41:56;15.70;99.90
75442;DHT22;64019;48.312;14.226;2023-08-07T14:44:22;15.80;99.90
75442;DHT22;64019;48.312;14.226;2023-08-07T14:46:48;15.80;99.90
75442;DHT22;64019;48.312;14.226;2023-08-07T14:49:14;15.80;99.90
75442;DHT22;64019;48.312;14.226;2023-08-07T14:51:39;15.80;99.90
75442;DHT22;64019;48.312;14.226;2023-08-07T14:54:05;15.90;99.90
75442;DHT22;64019;48.312;14.226;2023-08-07T14:56:30;15.90;99.90
75442;DHT22;64019;48.312;14.226;2023-08-07T14:58:56;16.00;99.90
75442;DHT22;64019;48.312;14.226;2023-08-07T15:01:22;16.10;99.90
75442;DHT22;64019;48.312;14.226;2023-08-07T15:03:47;16.10;99.90
75442;DHT22;64019;48.312;14.226;2023-08-07T15:06:13;16.10;99.90
75442;DHT22;64019;48.312;14.226;2023-08-07T15:08:38;16.00;99.90
75442;DHT22;64019;48.312;14.226;2023-08-07T15:11:04;16.00;99.90
75442;DHT22;64019;48.312;14.226;2023-08-07T15:13:30;15.90;99.90
75442;DHT22;64019;48.312;14.226;2023-08-07T15:15:56;15.80;99.90
75442;DHT22;64019;48.312;14.226;2023-08-07T15:18:22;15.80;99.90
75442;DHT22;64019;48.312;14.226;2023-08-07T15:20:49;15.90;99.90
75442;DHT22;64019;48.312;14.226;2023-08-07T15:23:15;15.90;99.90
75442;DHT22;64019;48.312;14.226;2023-08-07T15:25:41;15.90;99.90
75442;DHT22;64019;48.312;14.226;2023-08-07T15:28:07;15.90;99.90
75442;DHT22;64019;48.312;14.226;2023-08-07T15:30:33;15.90;99.90